createdAt,value
2023-03-29T06:22:20.205Z,4.13
2023-03-29T06:58:38.642Z,4.93
2023-03-29T07:20:40.778Z,5.22
2023-03-29T07:44:29.586Z,5.35
2023-03-29T07:46:56.226Z,5.72
2023-03-29T07:49:22.931Z,5.32
2023-03-29T07:51:49.849Z,6.38
2023-03-29T07:54:16.503Z,5.68
2023-03-29T07:56:43.354Z,6.45
2023-03-29T07:59:10.592Z,6.25
2023-03-29T08:01:37.138Z,6.68
2023-03-29T08:04:06.866Z,6.03
2023-03-29T08:06:34.296Z,6.35
2023-03-29T08:09:03.036Z,6.75
2023-03-29T08:11:30.178Z,6.68
2023-03-29T08:13:59.148Z,7.20
2023-03-29T08:16:27.665Z,6.88
2023-03-29T08:18:54.269Z,6.45
2023-03-29T08:21:22.775Z,8.63
2023-03-29T08:23:49.465Z,7.95
2023-03-29T08:26:16.152Z,8.02
2023-03-29T08:28:44.276Z,7.47
2023-03-29T08:31:11.421Z,8.15
2023-03-29T08:33:38.401Z,8.48
2023-03-29T08:36:05.470Z,8.07
2023-03-29T08:38:32.070Z,7.43
2023-03-29T08:40:58.623Z,8.18
2023-03-29T08:43:51.571Z,7.85
2023-03-29T08:46:43.202Z,7.97
2023-03-29T08:49:12.190Z,8.23
2023-03-29T08:51:46.320Z,8.93
2023-03-29T08:54:17.204Z,9.38
2023-03-29T08:56:46.510Z,8.15
2023-03-29T08:59:19.749Z,8.75
2023-03-29T09:01:49.298Z,8.80
2023-03-29T09:04:23.362Z,8.65
2023-03-29T09:06:50.198Z,9.38
2023-03-29T09:09:20.202Z,9.25
2023-03-29T09:11:52.814Z,9.52
2023-03-29T09:14:36.884Z,8.55
2023-03-29T09:17:09.078Z,7.80
2023-03-29T09:19:47.743Z,8.20
2023-03-29T09:22:28.115Z,9.13
2023-03-29T09:24:54.693Z,9.07
2023-03-29T09:27:27.292Z,8.02
2023-03-29T09:30:26.347Z,9.38
2023-03-29T09:33:11.088Z,8.85
2023-03-29T09:35:43.482Z,8.15
2023-03-29T09:38:13.484Z,8.63
2023-03-29T09:40:44.034Z,7.97
2023-03-29T09:43:14.232Z,7.70
2023-03-29T09:45:41.474Z,8.20
2023-03-29T09:48:16.062Z,8.60
2023-03-29T09:50:46.881Z,9.07
2023-03-29T09:53:15.452Z,8.77
2023-03-29T09:55:43.534Z,7.93
2023-03-29T09:58:16.292Z,8.23
2023-03-29T10:00:43.364Z,10.68
2023-03-29T10:03:10.959Z,8.93
2023-03-29T10:05:38.353Z,8.07
2023-03-29T10:08:22.227Z,9.10
2023-03-29T10:10:49.048Z,9.35
2023-03-29T10:13:23.263Z,8.85
2023-03-29T10:15:58.482Z,8.30
2023-03-29T10:18:27.087Z,8.30
2023-03-29T10:21:00.180Z,8.68
2023-03-29T10:23:33.995Z,9.00
2023-03-29T10:26:06.552Z,9.38
2023-03-29T10:28:36.361Z,9.60
2023-03-29T10:31:06.011Z,9.35
2023-03-29T10:33:34.932Z,9.60
2023-03-29T10:36:05.396Z,10.40
2023-03-29T10:38:32.065Z,10.15
2023-03-29T10:41:08.028Z,10.32
2023-03-29T10:46:23.814Z,10.00
2023-03-29T10:48:57.972Z,9.70
2023-03-29T10:51:27.773Z,10.52
2023-03-29T10:53:54.370Z,9.38
2023-03-29T10:56:37.229Z,9.80
2023-03-29T10:59:29.674Z,9.32
2023-03-29T12:32:04.378Z,11.98
2023-03-29T13:27:45.850Z,10.05
2023-03-29T13:31:10.716Z,9.07
2023-03-29T13:34:54.838Z,9.02
2023-03-29T13:38:40.694Z,8.60
2023-03-29T23:43:21.227Z,4.93
2023-03-29T23:45:47.655Z,4.68
2023-03-29T23:48:14.369Z,4.82
2023-03-29T23:50:40.789Z,4.75
2023-03-29T23:53:07.181Z,4.30
2023-03-29T23:55:33.578Z,3.63
2023-03-29T23:58:00.008Z,4.60
